sensor_id;sensor_type;location;lat;lon;timestamp;temperature;humidity
14741;DHT22;7462;53.530;9.414;2023-06-10T00:00:06;16.00;99.90
14741;DHT22;7462;53.530;9.414;2023-06-10T00:02:42;15.90;99.90
14741;DHT22;7462;53.530;9.414;2023-06-10T00:05:11;15.90;99.90
14741;DHT22;7462;53.530;9.414;2023-06-10T00:07:39;15.80;99.90
14741;DHT22;7462;53.530;9.414;2023-06-10T00:10:08;15.80;99.90
14741;DHT22;7462;53.530;9.414;2023-06-10T00:12:37;15.80;99.90
14741;DHT22;7462;53.530;9.414;2023-06-10T00:15:08;15.70;99.90
14741;DHT22;7462;53.530;9.414;2023-06-10T00:17:37;15.70;99.90
14741;DHT22;7462;53.530;9.414;2023-06-10T00:20:08;15.70;99.90
14741;DHT22;7462;53.530;9.414;2023-06-10T00:22:39;15.70;99.90
14741;DHT22;7462;53.530;9.414;2023-06-10T00:25:09;15.60;99.90
14741;DHT22;7462;53.530;9.414;2023-06-10T00:27:37;15.60;99.90
14741;DHT22;7462;53.530;9.414;2023-06-10T00:30:08;15.60;99.90
14741;DHT22;7462;53.530;9.414;2023-06-10T00:32:37;15.50;99.90
14741;DHT22;7462;53.530;9.414;2023-06-10T00:35:06;15.50;99.90
14741;DHT22;7462;53.530;9.414;2023-06-10T00:37:35;15.40;99.90
14741;DHT22;7462;53.530;9.414;2023-06-10T00:40:03;15.30;99.90
14741;DHT22;7462;53.530;9.414;2023-06-10T00:42:32;15.40;99.90
14741;DHT22;7462;53.530;9.414;2023-06-10T00:45:00;15.40;99.90
14741;DHT22;7462;53.530;9.414;2023-06-10T00:47:31;15.40;99.90
14741;DHT22;7462;53.530;9.414;2023-06-10T00:50:00;15.40;99.90
14741;DHT22;7462;53.530;9.414;2023-06-10T00:52:28;15.30;99.90
14741;DHT22;7462;53.530;9.414;2023-06-10T00:54:57;15.30;99.90
14741;DHT22;7462;53.530;9.414;2023-06-10T00:57:26;15.20;99.90
14741;DHT22;7462;53.530;9.414;2023-06-10T00:59:57;15.20;99.90
14741;DHT22;7462;53.530;9.414;2023-06-10T01:02:26;15.30;99.90
14741;DHT22;7462;53.530;9.414;2023-06-10T01:04:59;15.30;99.90
14741;DHT22;7462;53.530;9.414;2023-06-10T01:07:33;15.20;99.90
14741;DHT22;7462;53.530;9.414;2023-06-10T01:10:05;15.20;99.90
14741;DHT22;7462;53.530;9.414;2023-06-10T01:12:36;15.10;99.90
14741;DHT22;7462;53.530;9.414;2023-06-10T01:15:08;15.10;99.90
14741;DHT22;7462;53.530;9.414;2023-06-10T01:17:55;15.10;99.90
14741;DHT22;7462;53.530;9.414;2023-06-10T01:20:27;15.00;99.90
14741;DHT22;7462;53.530;9.414;2023-06-10T01:22:58;15.00;99.90
14741;DHT22;7462;53.530;9.414;2023-06-10T01:25:27;14.90;99.90
14741;DHT22;7462;53.530;9.414;2023-06-10T01:28:02;14.90;99.90
14741;DHT22;7462;53.530;9.414;2023-06-10T01:30:37;14.80;99.90
14741;DHT22;7462;53.530;9.414;2023-06-10T01:33:09;14.80;99.90
14741;DHT22;7462;53.530;9.414;2023-06-10T01:35:41;14.70;99.90
14741;DHT22;7462;53.530;9.414;2023-06-10T01:38:14;14.70;99.90
14741;DHT22;7462;53.530;9.414;2023-06-10T01:40:43;14.70;99.90
14741;DHT22;7462;53.530;9.414;2023-06-10T01:43:11;14.70;99.90
14741;DHT22;7462;53.530;9.414;2023-06-10T01:45:40;14.70;99.90
14741;DHT22;7462;53.530;9.414;2023-06-10T01:48:07;14.70;99.90
14741;DHT22;7462;53.530;9.414;2023-06-10T01:50:36;14.70;99.90
14741;DHT22;7462;53.530;9.414;2023-06-10T01:53:04;14.60;99.90
14741;DHT22;7462;53.530;9.414;2023-06-10T01:55:34;14.60;99.90
14741;DHT22;7462;53.530;9.414;2023-06-10T01:58:02;14.60;99.90
14741;DHT22;7462;53.530;9.414;2023-06-10T02:00:30;14.60;99.90
14741;DHT22;7462;53.530;9.414;2023-06-10T02:02:58;14.50;99.90
14741;DHT22;7462;53.530;9.414;2023-06-10T02:05:26;14.50;99.90
14741;DHT22;7462;53.530;9.414;2023-06-10T02:07:54;14.40;99.90
14741;DHT22;7462;53.530;9.414;2023-06-10T02:10:22;14.40;99.90
14741;DHT22;7462;53.530;9.414;2023-06-10T02:12:52;14.30;99.90
14741;DHT22;7462;53.530;9.414;2023-06-10T02:15:20;14.40;99.90
14741;DHT22;7462;53.530;9.414;2023-06-10T02:17:48;14.40;99.90
14741;DHT22;7462;53.530;9.414;2023-06-10T02:20:17;14.30;99.90
14741;DHT22;7462;53.530;9.414;2023-06-10T02:22:46;14.40;99.90
14741;DHT22;7462;53.530;9.414;2023-06-10T02:25:14;14.30;99.90
14741;DHT22;7462;53.530;9.414;2023-06-10T02:27:42;14.30;99.90
14741;DHT22;7462;53.530;9.414;2023-06-10T02:30:12;14.20;99.90
14741;DHT22;7462;53.530;9.414;2023-06-10T02:32:41;14.20;99.90
14741;DHT22;7462;53.530;9.414;2023-06-10T02:35:09;14.20;99.90
14741;DHT22;7462;53.530;9.414;2023-06-10T02:37:39;14.20;99.90
14741;DHT22;7462;53.530;9.414;2023-06-10T02:40:09;14.20;99.90
14741;DHT22;7462;53.530;9.414;2023-06-10T02:42:38;14.20;99.90
14741;DHT22;7462;53.530;9.414;2023-06-10T02:45:08;14.10;99.90
14741;DHT22;7462;53.530;9.414;2023-06-10T02:47:41;14.10;99.90
14741;DHT22;7462;53.530;9.414;2023-06-10T02:50:11;14.10;99.90
14741;DHT22;7462;53.530;9.414;2023-06-10T02:52:50;14.10;99.90
14741;DHT22;7462;53.530;9.414;2023-06-10T02:55:18;14.10;99.90
14741;DHT22;7462;53.530;9.414;2023-06-10T02:57:51;14.00;99.90
14741;DHT22;7462;53.530;9.414;2023-06-10T03:00:21;14.10;99.90
14741;DHT22;7462;53.530;9.414;2023-06-10T03:02:51;14.10;99.90
14741;DHT22;7462;53.530;9.414;2023-06-10T03:05:23;14.10;99.90
14741;DHT22;7462;53.530;9.414;2023-06-10T03:07:54;14.00;99.90
14741;DHT22;7462;53.530;9.414;2023-06-10T03:10:24;14.00;99.90
14741;DHT22;7462;53.530;9.414;2023-06-10T03:12:52;14.00;99.90
14741;DHT22;7462;53.530;9.414;2023-06-10T03:15:22;14.00;99.90
14741;DHT22;7462;53.530;9.414;2023-06-10T03:17:52;14.00;99.90
14741;DHT22;7462;53.530;9.414;2023-06-10T03:20:21;14.00;99.90
14741;DHT22;7462;53.530;9.414;2023-06-10T03:22:50;14.10;99.90
14741;DHT22;7462;53.530;9.414;2023-06-10T03:25:18;14.10;99.90
14741;DHT22;7462;53.530;9.414;2023-06-10T03:27:51;14.20;99.90
14741;DHT22;7462;53.530;9.414;2023-06-10T03:30:19;14.20;99.90
14741;DHT22;7462;53.530;9.414;2023-06-10T03:32:47;14.20;99.90
14741;DHT22;7462;53.530;9.414;2023-06-10T03:35:18;14.20;99.90
14741;DHT22;7462;53.530;9.414;2023-06-10T03:37:47;14.20;99.90
14741;DHT22;7462;53.530;9.414;2023-06-10T03:40:15;14.20;99.90
14741;DHT22;7462;53.530;9.414;2023-06-10T03:42:46;14.30;99.90
14741;DHT22;7462;53.530;9.414;2023-06-10T03:45:16;14.40;99.90
14741;DHT22;7462;53.530;9.414;2023-06-10T03:47:46;14.40;99.90
14741;DHT22;7462;53.530;9.414;2023-06-10T03:50:19;14.40;99.90
14741;DHT22;7462;53.530;9.414;2023-06-10T03:52:47;14.40;99.90
14741;DHT22;7462;53.530;9.414;2023-06-10T03:55:18;14.40;99.90
14741;DHT22;7462;53.530;9.414;2023-06-10T03:57:49;14.40;99.90
14741;DHT22;7462;53.530;9.414;2023-06-10T04:00:18;14.50;99.90
14741;DHT22;7462;53.530;9.414;2023-06-10T04:02:48;14.50;99.90
14741;DHT22;7462;53.530;9.414;2023-06-10T04:05:32;14.50;99.90
14741;DHT22;7462;53.530;9.414;2023-06-10T04:08:00;14.60;99.90
14741;DHT22;7462;53.530;9.414;2023-06-10T04:10:28;14.60;99.90
14741;DHT22;7462;53.530;9.414;2023-06-10T04:12:56;14.60;99.90
14741;DHT22;7462;53.530;9.414;2023-06-10T04:15:28;14.60;99.90
14741;DHT22;7462;53.530;9.414;2023-06-10T04:17:56;14.70;99.90
14741;DHT22;7462;53.530;9.414;2023-06-10T04:20:26;14.70;99.90
14741;DHT22;7462;53.530;9.414;2023-06-10T04:22:55;14.90;99.90
14741;DHT22;7462;53.530;9.414;2023-06-10T04:25:23;14.90;99.90
14741;DHT22;7462;53.530;9.414;2023-06-10T04:27:53;14.90;99.90
14741;DHT22;7462;53.530;9.414;2023-06-10T04:30:24;15.10;99.90
14741;DHT22;7462;53.530;9.414;2023-06-10T04:32:52;15.10;99.90
14741;DHT22;7462;53.530;9.414;2023-06-10T04:35:21;15.00;99.90
14741;DHT22;7462;53.530;9.414;2023-06-10T04:37:49;15.20;99.90
14741;DHT22;7462;53.530;9.414;2023-06-10T04:40:19;15.20;99.90
14741;DHT22;7462;53.530;9.414;2023-06-10T04:42:47;15.30;99.90
14741;DHT22;7462;53.530;9.414;2023-06-10T04:45:15;15.40;99.90
14741;DHT22;7462;53.530;9.414;2023-06-10T04:47:44;15.50;99.90
14741;DHT22;7462;53.530;9.414;2023-06-10T04:50:12;15.60;99.90
14741;DHT22;7462;53.530;9.414;2023-06-10T04:52:40;15.70;99.90
14741;DHT22;7462;53.530;9.414;2023-06-10T04:55:09;15.70;99.90
14741;DHT22;7462;53.530;9.414;2023-06-10T04:57:39;15.80;99.90
14741;DHT22;7462;53.530;9.414;2023-06-10T05:00:08;15.80;99.90
14741;DHT22;7462;53.530;9.414;2023-06-10T05:02:36;15.90;99.90
14741;DHT22;7462;53.530;9.414;2023-06-10T05:05:04;15.90;99.90
14741;DHT22;7462;53.530;9.414;2023-06-10T05:07:33;16.10;99.90
14741;DHT22;7462;53.530;9.414;2023-06-10T05:10:01;16.20;99.90
14741;DHT22;7462;53.530;9.414;2023-06-10T05:12:29;16.20;99.90
14741;DHT22;7462;53.530;9.414;2023-06-10T05:14:59;16.40;99.90
14741;DHT22;7462;53.530;9.414;2023-06-10T05:17:28;16.30;99.90
14741;DHT22;7462;53.530;9.414;2023-06-10T05:19:56;16.20;99.90
14741;DHT22;7462;53.530;9.414;2023-06-10T05:22:24;16.20;99.90
14741;DHT22;7462;53.530;9.414;2023-06-10T05:24:52;16.30;99.90
14741;DHT22;7462;53.530;9.414;2023-06-10T05:27:20;16.50;99.90
14741;DHT22;7462;53.530;9.414;2023-06-10T05:29:48;16.80;99.90
14741;DHT22;7462;53.530;9.414;2023-06-10T05:32:19;17.00;99.90
14741;DHT22;7462;53.530;9.414;2023-06-10T05:34:47;17.10;99.90
14741;DHT22;7462;53.530;9.414;2023-06-10T05:37:15;17.20;99.90
14741;DHT22;7462;53.530;9.414;2023-06-10T05:39:43;17.20;99.90
14741;DHT22;7462;53.530;9.414;2023-06-10T05:42:11;17.40;99.90
14741;DHT22;7462;53.530;9.414;2023-06-10T05:44:39;17.50;99.90
14741;DHT22;7462;53.530;9.414;2023-06-10T05:47:07;17.60;99.90
14741;DHT22;7462;53.530;9.414;2023-06-10T05:49:37;17.60;99.90
14741;DHT22;7462;53.530;9.414;2023-06-10T05:52:06;17.60;99.90
14741;DHT22;7462;53.530;9.414;2023-06-10T05:54:34;17.50;99.90
14741;DHT22;7462;53.530;9.414;2023-06-10T05:57:03;17.40;99.90
14741;DHT22;7462;53.530;9.414;2023-06-10T05:59:32;17.50;99.90
14741;DHT22;7462;53.530;9.414;2023-06-10T06:02:00;17.60;99.90
14741;DHT22;7462;53.530;9.414;2023-06-10T06:04:28;17.90;99.90
14741;DHT22;7462;53.530;9.414;2023-06-10T06:06:58;18.20;99.90
14741;DHT22;7462;53.530;9.414;2023-06-10T06:09:26;18.20;99.90
14741;DHT22;7462;53.530;9.414;2023-06-10T06:11:54;18.40;99.90
14741;DHT22;7462;53.530;9.414;2023-06-10T06:14:22;18.40;99.90
14741;DHT22;7462;53.530;9.414;2023-06-10T06:16:50;18.50;99.90
14741;DHT22;7462;53.530;9.414;2023-06-10T06:19:18;18.40;99.90
14741;DHT22;7462;53.530;9.414;2023-06-10T06:21:46;18.10;99.90
14741;DHT22;7462;53.530;9.414;2023-06-10T06:24:16;18.50;99.90
14741;DHT22;7462;53.530;9.414;2023-06-10T06:26:44;19.00;99.90
14741;DHT22;7462;53.530;9.414;2023-06-10T06:29:12;18.80;99.90
14741;DHT22;7462;53.530;9.414;2023-06-10T06:31:40;18.80;99.90
14741;DHT22;7462;53.530;9.414;2023-06-10T06:34:08;19.10;99.90
14741;DHT22;7462;53.530;9.414;2023-06-10T06:36:38;19.30;99.90
14741;DHT22;7462;53.530;9.414;2023-06-10T06:39:07;19.30;99.90
14741;DHT22;7462;53.530;9.414;2023-06-10T06:41:36;19.30;99.90
14741;DHT22;7462;53.530;9.414;2023-06-10T06:44:04;19.30;99.90
14741;DHT22;7462;53.530;9.414;2023-06-10T06:46:37;19.30;99.90
14741;DHT22;7462;53.530;9.414;2023-06-10T06:49:05;19.40;99.90
14741;DHT22;7462;53.530;9.414;2023-06-10T06:51:33;19.60;99.90
14741;DHT22;7462;53.530;9.414;2023-06-10T06:54:02;20.00;99.90
14741;DHT22;7462;53.530;9.414;2023-06-10T06:56:32;20.30;99.90
14741;DHT22;7462;53.530;9.414;2023-06-10T06:59:01;20.20;99.90
14741;DHT22;7462;53.530;9.414;2023-06-10T07:01:33;20.00;99.90
14741;DHT22;7462;53.530;9.414;2023-06-10T07:04:01;19.80;99.90
14741;DHT22;7462;53.530;9.414;2023-06-10T07:06:29;19.70;99.90
14741;DHT22;7462;53.530;9.414;2023-06-10T07:08:58;19.90;99.90
14741;DHT22;7462;53.530;9.414;2023-06-10T07:11:26;19.90;99.90
14741;DHT22;7462;53.530;9.414;2023-06-10T07:13:54;20.30;99.90
14741;DHT22;7462;53.530;9.414;2023-06-10T07:16:23;20.90;99.90
14741;DHT22;7462;53.530;9.414;2023-06-10T07:18:52;21.00;99.90
14741;DHT22;7462;53.530;9.414;2023-06-10T07:21:20;20.80;99.90
14741;DHT22;7462;53.530;9.414;2023-06-10T07:23:49;21.00;99.90
14741;DHT22;7462;53.530;9.414;2023-06-10T07:26:22;21.30;99.90
14741;DHT22;7462;53.530;9.414;2023-06-10T07:28:53;21.40;99.90
14741;DHT22;7462;53.530;9.414;2023-06-10T07:31:23;21.50;99.90
14741;DHT22;7462;53.530;9.414;2023-06-10T07:33:51;21.70;99.90
14741;DHT22;7462;53.530;9.414;2023-06-10T07:36:19;21.80;99.90
14741;DHT22;7462;53.530;9.414;2023-06-10T07:38:48;21.70;99.90
14741;DHT22;7462;53.530;9.414;2023-06-10T07:41:16;22.10;99.90
14741;DHT22;7462;53.530;9.414;2023-06-10T07:43:46;22.10;99.90
14741;DHT22;7462;53.530;9.414;2023-06-10T07:46:14;22.50;99.90
14741;DHT22;7462;53.530;9.414;2023-06-10T07:48:44;22.70;99.90
14741;DHT22;7462;53.530;9.414;2023-06-10T07:51:12;22.80;99.90
14741;DHT22;7462;53.530;9.414;2023-06-10T07:53:40;23.00;99.90
14741;DHT22;7462;53.530;9.414;2023-06-10T07:56:08;23.20;99.90
14741;DHT22;7462;53.530;9.414;2023-06-10T07:58:36;23.10;99.90
14741;DHT22;7462;53.530;9.414;2023-06-10T08:01:04;23.30;99.90
14741;DHT22;7462;53.530;9.414;2023-06-10T08:03:32;23.30;99.90
14741;DHT22;7462;53.530;9.414;2023-06-10T08:06:02;23.50;99.90
14741;DHT22;7462;53.530;9.414;2023-06-10T08:08:30;23.70;99.90
14741;DHT22;7462;53.530;9.414;2023-06-10T08:10:58;23.70;99.90
14741;DHT22;7462;53.530;9.414;2023-06-10T08:13:26;23.90;99.90
14741;DHT22;7462;53.530;9.414;2023-06-10T08:15:54;24.10;99.90
14741;DHT22;7462;53.530;9.414;2023-06-10T08:18:22;24.30;99.90
14741;DHT22;7462;53.530;9.414;2023-06-10T08:20:50;24.40;99.90
14741;DHT22;7462;53.530;9.414;2023-06-10T08:23:20;24.30;99.90
14741;DHT22;7462;53.530;9.414;2023-06-10T08:25:48;24.40;99.90
14741;DHT22;7462;53.530;9.414;2023-06-10T08:28:16;24.50;99.90
14741;DHT22;7462;53.530;9.414;2023-06-10T08:30:45;24.80;99.90
14741;DHT22;7462;53.530;9.414;2023-06-10T08:33:13;25.20;99.90
14741;DHT22;7462;53.530;9.414;2023-06-10T08:35:41;25.30;99.90
14741;DHT22;7462;53.530;9.414;2023-06-10T08:38:09;25.50;99.90
14741;DHT22;7462;53.530;9.414;2023-06-10T08:40:38;25.50;99.90
14741;DHT22;7462;53.530;9.414;2023-06-10T08:43:10;25.30;99.90
14741;DHT22;7462;53.530;9.414;2023-06-10T08:45:39;25.30;99.90
14741;DHT22;7462;53.530;9.414;2023-06-10T08:48:10;25.30;99.90
14741;DHT22;7462;53.530;9.414;2023-06-10T08:50:40;25.50;99.90
14741;DHT22;7462;53.530;9.414;2023-06-10T08:53:12;25.60;99.90
14741;DHT22;7462;53.530;9.414;2023-06-10T08:55:46;25.70;99.90
14741;DHT22;7462;53.530;9.414;2023-06-10T08:58:17;25.60;99.90
14741;DHT22;7462;53.530;9.414;2023-06-10T09:00:46;25.90;99.90
14741;DHT22;7462;53.530;9.414;2023-06-10T09:03:14;26.10;99.90
14741;DHT22;7462;53.530;9.414;2023-06-10T09:05:42;26.20;99.90
14741;DHT22;7462;53.530;9.414;2023-06-10T09:08:11;26.00;99.90
14741;DHT22;7462;53.530;9.414;2023-06-10T09:10:39;26.20;99.90
14741;DHT22;7462;53.530;9.414;2023-06-10T09:13:09;26.50;99.90
14741;DHT22;7462;53.530;9.414;2023-06-10T09:15:37;26.50;99.90
14741;DHT22;7462;53.530;9.414;2023-06-10T09:18:07;27.00;99.90
14741;DHT22;7462;53.530;9.414;2023-06-10T09:20:35;27.00;99.90
14741;DHT22;7462;53.530;9.414;2023-06-10T09:23:04;26.90;99.90
14741;DHT22;7462;53.530;9.414;2023-06-10T09:25:36;27.10;99.90
14741;DHT22;7462;53.530;9.414;2023-06-10T09:28:14;27.40;99.90
14741;DHT22;7462;53.530;9.414;2023-06-10T09:30:42;27.40;99.90
14741;DHT22;7462;53.530;9.414;2023-06-10T09:33:12;27.20;99.90
14741;DHT22;7462;53.530;9.414;2023-06-10T09:35:46;27.30;99.90
14741;DHT22;7462;53.530;9.414;2023-06-10T09:38:14;27.30;99.90
14741;DHT22;7462;53.530;9.414;2023-06-10T09:40:50;27.50;99.90
14741;DHT22;7462;53.530;9.414;2023-06-10T09:43:20;27.40;99.90
14741;DHT22;7462;53.530;9.414;2023-06-10T09:45:48;27.70;99.90
14741;DHT22;7462;53.530;9.414;2023-06-10T09:48:17;28.10;99.90
14741;DHT22;7462;53.530;9.414;2023-06-10T09:50:46;28.00;99.90
14741;DHT22;7462;53.530;9.414;2023-06-10T09:53:14;28.10;99.90
14741;DHT22;7462;53.530;9.414;2023-06-10T09:55:45;28.20;99.90
14741;DHT22;7462;53.530;9.414;2023-06-10T09:58:13;28.00;99.90
14741;DHT22;7462;53.530;9.414;2023-06-10T10:00:43;27.90;99.90
14741;DHT22;7462;53.530;9.414;2023-06-10T10:03:22;28.70;99.90
14741;DHT22;7462;53.530;9.414;2023-06-10T10:05:58;29.30;99.90
14741;DHT22;7462;53.530;9.414;2023-06-10T10:08:26;29.20;99.90
14741;DHT22;7462;53.530;9.414;2023-06-10T10:10:56;29.00;99.90
14741;DHT22;7462;53.530;9.414;2023-06-10T10:13:25;28.70;99.90
14741;DHT22;7462;53.530;9.414;2023-06-10T10:15:59;28.70;99.90
14741;DHT22;7462;53.530;9.414;2023-06-10T10:18:29;28.50;99.90
14741;DHT22;7462;53.530;9.414;2023-06-10T10:21:01;28.80;99.90
14741;DHT22;7462;53.530;9.414;2023-06-10T10:23:34;29.30;99.90
14741;DHT22;7462;53.530;9.414;2023-06-10T10:26:09;29.50;99.90
14741;DHT22;7462;53.530;9.414;2023-06-10T10:28:42;29.70;99.90
14741;DHT22;7462;53.530;9.414;2023-06-10T10:31:18;29.50;99.90
14741;DHT22;7462;53.530;9.414;2023-06-10T10:33:54;29.30;99.90
14741;DHT22;7462;53.530;9.414;2023-06-10T10:36:23;29.20;99.90
14741;DHT22;7462;53.530;9.414;2023-06-10T10:38:51;29.50;99.90
14741;DHT22;7462;53.530;9.414;2023-06-10T10:41:20;29.70;99.90
14741;DHT22;7462;53.530;9.414;2023-06-10T10:43:49;29.70;99.90
14741;DHT22;7462;53.530;9.414;2023-06-10T10:46:19;29.60;99.90
14741;DHT22;7462;53.530;9.414;2023-06-10T10:48:52;29.80;99.90
14741;DHT22;7462;53.530;9.414;2023-06-10T10:51:22;29.80;99.50
14741;DHT22;7462;53.530;9.414;2023-06-10T10:54:10;29.70;99.10
14741;DHT22;7462;53.530;9.414;2023-06-10T10:56:38;29.40;99.10
14741;DHT22;7462;53.530;9.414;2023-06-10T10:59:06;30.00;99.40
14741;DHT22;7462;53.530;9.414;2023-06-10T11:01:43;30.20;99.40
14741;DHT22;7462;53.530;9.414;2023-06-10T11:04:13;30.50;99.20
14741;DHT22;7462;53.530;9.414;2023-06-10T11:06:52;30.70;97.90
14741;DHT22;7462;53.530;9.414;2023-06-10T11:09:28;30.60;98.00
14741;DHT22;7462;53.530;9.414;2023-06-10T11:11:57;30.70;97.90
14741;DHT22;7462;53.530;9.414;2023-06-10T11:14:28;30.70;98.20
14741;DHT22;7462;53.530;9.414;2023-06-10T11:16:58;30.80;98.00
14741;DHT22;7462;53.530;9.414;2023-06-10T11:19:34;30.60;98.10
14741;DHT22;7462;53.530;9.414;2023-06-10T11:22:05;30.40;97.80
14741;DHT22;7462;53.530;9.414;2023-06-10T11:24:33;30.20;97.70
14741;DHT22;7462;53.530;9.414;2023-06-10T11:27:18;30.40;98.50
14741;DHT22;7462;53.530;9.414;2023-06-10T11:29:57;30.40;98.20
14741;DHT22;7462;53.530;9.414;2023-06-10T11:32:31;30.50;97.90
14741;DHT22;7462;53.530;9.414;2023-06-10T11:34:59;30.80;98.80
14741;DHT22;7462;53.530;9.414;2023-06-10T11:37:27;31.50;98.20
14741;DHT22;7462;53.530;9.414;2023-06-10T11:39:56;31.60;97.10
14741;DHT22;7462;53.530;9.414;2023-06-10T11:42:24;31.10;97.00
14741;DHT22;7462;53.530;9.414;2023-06-10T11:44:53;31.00;97.30
14741;DHT22;7462;53.530;9.414;2023-06-10T11:47:22;30.80;98.30
14741;DHT22;7462;53.530;9.414;2023-06-10T11:49:57;30.40;98.90
14741;DHT22;7462;53.530;9.414;2023-06-10T11:52:26;30.20;97.70
14741;DHT22;7462;53.530;9.414;2023-06-10T11:54:55;30.40;98.30
14741;DHT22;7462;53.530;9.414;2023-06-10T11:57:23;30.80;98.30
14741;DHT22;7462;53.530;9.414;2023-06-10T11:59:52;30.70;98.10
14741;DHT22;7462;53.530;9.414;2023-06-10T12:02:20;30.50;98.40
14741;DHT22;7462;53.530;9.414;2023-06-10T12:04:49;30.20;99.00
14741;DHT22;7462;53.530;9.414;2023-06-10T12:07:19;29.90;98.70
14741;DHT22;7462;53.530;9.414;2023-06-10T12:09:58;29.50;98.60
14741;DHT22;7462;53.530;9.414;2023-06-10T12:12:44;29.20;99.70
14741;DHT22;7462;53.530;9.414;2023-06-10T12:15:23;29.00;99.90
14741;DHT22;7462;53.530;9.414;2023-06-10T12:17:51;29.00;99.90
14741;DHT22;7462;53.530;9.414;2023-06-10T12:20:27;29.20;99.90
14741;DHT22;7462;53.530;9.414;2023-06-10T12:22:56;29.20;99.90
14741;DHT22;7462;53.530;9.414;2023-06-10T12:25:25;28.90;99.90
14741;DHT22;7462;53.530;9.414;2023-06-10T12:27:55;28.60;99.90
14741;DHT22;7462;53.530;9.414;2023-06-10T12:30:25;28.80;99.90
14741;DHT22;7462;53.530;9.414;2023-06-10T12:32:54;28.80;99.90
14741;DHT22;7462;53.530;9.414;2023-06-10T12:35:24;28.90;99.90
14741;DHT22;7462;53.530;9.414;2023-06-10T12:37:58;28.80;99.90
14741;DHT22;7462;53.530;9.414;2023-06-10T12:40:28;28.90;99.90
14741;DHT22;7462;53.530;9.414;2023-06-10T12:42:59;28.90;99.90
14741;DHT22;7462;53.530;9.414;2023-06-10T12:45:27;28.70;99.90
14741;DHT22;7462;53.530;9.414;2023-06-10T12:48:06;28.50;99.90
14741;DHT22;7462;53.530;9.414;2023-06-10T12:50:37;28.60;99.90
14741;DHT22;7462;53.530;9.414;2023-06-10T12:53:07;28.60;99.90
14741;DHT22;7462;53.530;9.414;2023-06-10T12:55:35;28.30;99.90
14741;DHT22;7462;53.530;9.414;2023-06-10T12:58:03;28.40;99.90
14741;DHT22;7462;53.530;9.414;2023-06-10T13:00:31;28.40;99.90
14741;DHT22;7462;53.530;9.414;2023-06-10T13:03:02;28.40;99.90
14741;DHT22;7462;53.530;9.414;2023-06-10T13:05:33;28.30;99.90
14741;DHT22;7462;53.530;9.414;2023-06-10T13:08:02;28.40;99.90
14741;DHT22;7462;53.530;9.414;2023-06-10T13:10:31;28.50;99.90
14741;DHT22;7462;53.530;9.414;2023-06-10T13:13:00;28.30;99.90
14741;DHT22;7462;53.530;9.414;2023-06-10T13:15:28;28.10;99.90
14741;DHT22;7462;53.530;9.414;2023-06-10T13:17:56;28.10;99.90
14741;DHT22;7462;53.530;9.414;2023-06-10T13:20:24;28.00;99.90
14741;DHT22;7462;53.530;9.414;2023-06-10T13:22:52;27.80;99.90
14741;DHT22;7462;53.530;9.414;2023-06-10T13:25:21;27.90;99.90
14741;DHT22;7462;53.530;9.414;2023-06-10T13:27:51;27.90;99.90
14741;DHT22;7462;53.530;9.414;2023-06-10T13:30:19;27.90;99.90
14741;DHT22;7462;53.530;9.414;2023-06-10T13:32:47;27.90;99.90
14741;DHT22;7462;53.530;9.414;2023-06-10T13:35:15;27.90;99.90
14741;DHT22;7462;53.530;9.414;2023-06-10T13:37:43;27.90;99.90
14741;DHT22;7462;53.530;9.414;2023-06-10T13:40:12;27.80;99.90
14741;DHT22;7462;53.530;9.414;2023-06-10T13:42:40;27.90;99.90
14741;DHT22;7462;53.530;9.414;2023-06-10T13:45:09;27.80;99.90
14741;DHT22;7462;53.530;9.414;2023-06-10T13:47:38;27.60;99.90
14741;DHT22;7462;53.530;9.414;2023-06-10T13:50:07;27.60;99.90
14741;DHT22;7462;53.530;9.414;2023-06-10T13:52:35;27.50;99.90
14741;DHT22;7462;53.530;9.414;2023-06-10T13:55:04;27.60;99.90
14741;DHT22;7462;53.530;9.414;2023-06-10T13:57:32;27.60;99.90
14741;DHT22;7462;53.530;9.414;2023-06-10T14:00:01;27.70;99.90
14741;DHT22;7462;53.530;9.414;2023-06-10T14:02:31;27.80;99.90
14741;DHT22;7462;53.530;9.414;2023-06-10T14:04:59;27.70;99.90
14741;DHT22;7462;53.530;9.414;2023-06-10T14:07:28;27.70;99.90
14741;DHT22;7462;53.530;9.414;2023-06-10T14:09:56;27.60;99.90
14741;DHT22;7462;53.530;9.414;2023-06-10T14:12:24;27.70;99.90
14741;DHT22;7462;53.530;9.414;2023-06-10T14:14:52;27.90;99.90
14741;DHT22;7462;53.530;9.414;2023-06-10T14:17:20;27.90;99.90
14741;DHT22;7462;53.530;9.414;2023-06-10T14:19:51;27.80;99.90
14741;DHT22;7462;53.530;9.414;2023-06-10T14:22:19;27.60;99.90
14741;DHT22;7462;53.530;9.414;2023-06-10T14:24:47;27.60;99.90
14741;DHT22;7462;53.530;9.414;2023-06-10T14:27:15;27.50;99.90
14741;DHT22;7462;53.530;9.414;2023-06-10T14:29:43;27.50;99.90
14741;DHT22;7462;53.530;9.414;2023-06-10T14:32:12;27.60;99.90
14741;DHT22;7462;53.530;9.414;2023-06-10T14:34:40;27.60;99.90
14741;DHT22;7462;53.530;9.414;2023-06-10T14:37:12;27.70;99.90
14741;DHT22;7462;53.530;9.414;2023-06-10T14:39:40;27.70;99.90
14741;DHT22;7462;53.530;9.414;2023-06-10T14:42:08;27.70;99.90
14741;DHT22;7462;53.530;9.414;2023-06-10T14:44:37;27.60;99.90
14741;DHT22;7462;53.530;9.414;2023-06-10T14:47:05;27.50;99.90
14741;DHT22;7462;53.530;9.414;2023-06-10T14:49:33;27.40;99.90
14741;DHT22;7462;53.530;9.414;2023-06-10T14:52:01;27.50;99.90
14741;DHT22;7462;53.530;9.414;2023-06-10T14:54:31;27.40;99.90
14741;DHT22;7462;53.530;9.414;2023-06-10T14:56:59;27.40;99.90
14741;DHT22;7462;53.530;9.414;2023-06-10T14:59:27;27.40;99.90
14741;DHT22;7462;53.530;9.414;2023-06-10T15:01:55;27.40;99.90
14741;DHT22;7462;53.530;9.414;2023-06-10T15:04:23;27.30;99.90
14741;DHT22;7462;53.530;9.414;2023-06-10T15:06:51;27.30;99.90
14741;DHT22;7462;53.530;9.414;2023-06-10T15:09:19;27.30;99.90
14741;DHT22;7462;53.530;9.414;2023-06-10T15:11:49;27.40;99.90
14741;DHT22;7462;53.530;9.414;2023-06-10T15:14:17;27.30;99.90
14741;DHT22;7462;53.530;9.414;2023-06-10T15:16:45;27.10;99.90
14741;DHT22;7462;53.530;9.414;2023-06-10T15:19:13;27.20;99.90
14741;DHT22;7462;53.530;9.414;2023-06-10T15:21:41;27.30;99.90
14741;DHT22;7462;53.530;9.414;2023-06-10T15:24:09;27.10;99.90
14741;DHT22;7462;53.530;9.414;2023-06-10T15:26:37;27.00;99.90
14741;DHT22;7462;53.530;9.414;2023-06-10T15:29:07;26.90;99.90
14741;DHT22;7462;53.530;9.414;2023-06-10T15:31:35;26.90;99.90
14741;DHT22;7462;53.530;9.414;2023-06-10T15:34:04;26.90;99.90
14741;DHT22;7462;53.530;9.414;2023-06-10T15:36:33;26.90;99.90
14741;DHT22;7462;53.530;9.414;2023-06-10T15:39:04;27.00;99.90
14741;DHT22;7462;53.530;9.414;2023-06-10T15:41:34;27.00;99.90
14741;DHT22;7462;53.530;9.414;2023-06-10T15:44:02;26.90;99.90
14741;DHT22;7462;53.530;9.414;2023-06-10T15:46:31;26.70;99.90
14741;DHT22;7462;53.530;9.414;2023-06-10T15:49:01;26.60;99.90
14741;DHT22;7462;53.530;9.414;2023-06-10T15:51:29;26.60;99.90
14741;DHT22;7462;53.530;9.414;2023-06-10T15:53:57;26.50;99.90
14741;DHT22;7462;53.530;9.414;2023-06-10T15:56:25;26.40;99.90
14741;DHT22;7462;53.530;9.414;2023-06-10T15:58:53;26.40;99.90